Time;durP1;ratioP1;P1;durP2;ratioP2;P2;SDS_P1;SDS_P2;PMS_P1;PMS_P2;Temp;Humidity;BMP_temperature;BMP_pressure;BME280_temperature;BME280_humidity;BME280_pressure;Samples;Min_cycle;Max_cycle;Signal;HPM_P1;HPM_P2
2021/12/15 00:01:00;;;;;;;6.07;3.03;;;;;;;20.98;37.12;100481.57;1741295;81;28532;-72
2021/12/15 00:03:48;;;;;;;4.63;2.67;;;;;;;20.98;37.16;100477.47;1725889;82;28564;-72
2021/12/15 00:06:39;;;;;;;3.22;2.65;;;;;;;20.98;37.14;100482.12;1751602;81;28533;-72
2021/12/15 00:09:29;;;;;;;4.70;2.77;;;;;;;20.95;37.17;100481.99;1728276;82;28547;-72
2021/12/15 00:12:18;;;;;;;4.58;2.83;;;;;;;21.00;37.16;100478.66;1752109;81;28562;-72
2021/12/15 00:15:08;;;;;;;5.47;2.97;;;;;;;21.00;37.13;100475.92;1767622;80;28581;-72
2021/12/15 00:17:58;;;;;;;5.45;2.98;;;;;;;20.98;37.16;100478.84;1782322;80;28421;-72
2021/12/15 00:20:47;;;;;;;5.22;2.83;;;;;;;20.99;37.15;100475.59;1724544;82;28589;-71
2021/12/15 00:23:35;;;;;;;4.28;2.83;;;;;;;20.99;37.17;100473.71;1754308;81;28577;-72
2021/12/15 00:26:24;;;;;;;6.30;2.95;;;;;;;21.01;37.14;100470.25;1712467;82;28566;-72
2021/12/15 00:29:12;;;;;;;6.22;3.10;;;;;;;21.00;37.12;100475.92;1724586;82;28454;-72
2021/12/15 00:32:04;;;;;;;5.83;2.98;;;;;;;21.00;37.12;100482.76;1749743;81;28587;-72
2021/12/15 00:34:52;;;;;;;3.80;2.55;;;;;;;21.00;37.17;100473.20;1754470;81;28581;-72
2021/12/15 00:37:40;;;;;;;4.15;2.55;;;;;;;21.01;37.14;100472.98;1740104;81;28414;-72
2021/12/15 00:40:28;;;;;;;4.27;2.60;;;;;;;21.01;37.14;100477.59;1756413;81;28449;-71
2021/12/15 00:43:17;;;;;;;4.25;2.70;;;;;;;21.01;37.14;100486.64;1755521;81;28893;-71
2021/12/15 00:46:07;;;;;;;4.33;2.50;;;;;;;21.00;37.16;100477.30;1757618;81;28454;-72
2021/12/15 00:48:58;;;;;;;4.17;2.58;;;;;;;21.02;37.13;100472.47;1757476;80;28500;-72
2021/12/15 00:51:46;;;;;;;4.03;2.60;;;;;;;20.99;37.15;100476.44;1777121;80;28445;-72
2021/12/15 00:54:36;;;;;;;5.03;2.80;;;;;;;21.02;37.13;100475.20;1754724;81;28523;-72
2021/12/15 00:57:25;;;;;;;3.95;2.67;;;;;;;21.00;37.15;100478.14;1715808;82;28651;-72
2021/12/15 01:00:16;;;;;;;4.72;2.60;;;;;;;21.01;37.15;100468.04;1750732;81;28504;-72
2021/12/15 01:03:06;;;;;;;5.60;2.90;;;;;;;21.02;37.14;100465.64;1719073;83;28485;-73
2021/12/15 01:06:02;;;;;;;4.55;2.67;;;;;;;21.02;37.12;100476.05;1743614;81;28609;-72
2021/12/15 01:08:54;;;;;;;7.00;3.30;;;;;;;21.01;37.16;100473.50;1736441;81;28451;-73
2021/12/15 01:21:09;;;;;;;3.52;2.52;;;;;;;20.97;37.21;100473.08;1747992;81;28429;-72
2021/12/15 01:23:57;;;;;;;4.30;2.40;;;;;;;20.95;37.23;100468.85;1747145;81;28530;-72
2021/12/15 01:27:05;;;;;;;3.45;2.50;;;;;;;20.97;37.22;100468.98;1752314;81;30392;-72
2021/12/15 01:29:54;;;;;;;3.90;2.33;;;;;;;20.96;37.25;100472.73;1750816;81;28447;-72
2021/12/15 01:32:44;;;;;;;4.62;2.60;;;;;;;21.00;37.21;100469.09;1730534;81;29062;-71
2021/12/15 01:35:35;;;;;;;4.70;2.50;;;;;;;21.00;37.20;100472.69;1735671;81;28486;-76
2021/12/15 01:38:26;;;;;;;6.00;2.67;;;;;;;21.00;37.20;100476.78;1743065;81;28565;-70
2021/12/15 06:07:53;;;;;;;4.78;3.92;;;;;;;16.61;50.47;100473.10;1936180;72;27968;-82
2021/12/15 06:10:43;;;;;;;4.22;3.80;;;;;;;16.38;43.88;100486.45;1881386;75;28014;-79
2021/12/15 06:13:32;;;;;;;4.05;3.75;;;;;;;16.09;39.85;100483.42;1884390;75;28212;-70
2021/12/15 06:16:22;;;;;;;2.85;2.65;;;;;;;16.10;38.74;100472.94;1871170;75;28189;-71
2021/12/15 06:19:11;;;;;;;2.52;2.35;;;;;;;16.69;40.36;100471.72;1891120;75;28047;-71
2021/12/15 06:22:00;;;;;;;2.15;2.05;;;;;;;17.24;40.74;100470.38;1889566;75;28056;-71
2021/12/15 06:24:48;;;;;;;2.17;2.07;;;;;;;17.66;40.71;100470.03;1883858;75;28097;-71
2021/12/15 06:27:40;;;;;;;2.00;1.80;;;;;;;18.01;40.41;100472.69;1880595;75;28102;-71
2021/12/15 06:30:29;;;;;;;2.00;1.90;;;;;;;18.29;40.03;100476.55;1894657;75;28110;-71
2021/12/15 06:33:17;;;;;;;2.90;2.00;;;;;;;18.53;39.77;100472.27;1894547;75;28198;-71
2021/12/15 06:36:08;;;;;;;2.12;2.02;;;;;;;18.76;39.56;100477.67;1877229;75;28810;-72
2021/12/15 06:38:56;;;;;;;1.90;1.80;;;;;;;18.92;39.26;100478.36;1877652;73;28151;-72
2021/12/15 06:41:44;;;;;;;2.02;1.82;;;;;;;19.11;39.05;100477.77;1890140;75;28109;-72
2021/12/15 06:44:33;;;;;;;1.85;1.75;;;;;;;19.23;38.81;100478.99;1876655;75;28149;-72
2021/12/15 06:59:55;;;;;;;1.70;1.60;;;;;;;19.62;38.32;100494.21;1869290;75;28148;-70
2021/12/15 07:02:44;;;;;;;1.70;1.60;;;;;;;19.68;38.29;100494.80;1870868;75;28761;-71
2021/12/15 07:05:33;;;;;;;1.60;1.50;;;;;;;19.74;38.14;100492.69;1882136;75;28139;-69
2021/12/15 07:08:40;;;;;;;1.80;1.70;;;;;;;19.76;38.09;100494.70;1860540;75;28190;-67
2021/12/15 07:11:29;;;;;;;1.80;1.63;;;;;;;19.79;38.15;100501.14;1886335;75;28189;-67
2021/12/15 07:14:20;;;;;;;1.80;1.70;;;;;;;19.82;38.08;100505.67;1851225;75;28268;-68
2021/12/15 07:17:18;;;;;;;1.60;1.60;;;;;;;19.80;38.04;100509.11;1876162;75;28067;-67
2021/12/15 07:22:53;;;;;;;1.70;1.60;;;;;;;19.87;38.01;100510.55;1865823;75;32981;-68
2021/12/15 07:25:46;;;;;;;1.70;1.60;;;;;;;19.95;37.98;100516.72;1873213;75;28230;-68
2021/12/15 07:28:34;;;;;;;3.47;1.53;;;;;;;20.00;38.00;100515.63;1861477;75;28486;-67
2021/12/15 07:31:23;;;;;;;3.00;2.08;;;;;;;20.04;37.90;100516.10;1880985;75;28167;-68
2021/12/15 07:34:12;;;;;;;1.97;1.80;;;;;;;20.05;37.98;100515.05;1877683;75;28157;-68
2021/12/15 07:37:00;;;;;;;2.00;1.60;;;;;;;20.00;37.87;100516.14;1869065;73;28300;-69
2021/12/15 07:39:57;;;;;;;1.70;1.60;;;;;;;19.99;37.91;100517.20;1864591;76;28283;-70
2021/12/15 07:42:53;;;;;;;1.63;1.53;;;;;;;20.00;37.90;100522.95;1878926;75;28089;-69
2021/12/15 07:45:33;;;;;;;2.02;1.67;;;;;;;20.00;37.87;100516.99;1889950;75;28140;-69
2021/12/15 07:48:24;;;;;;;1.70;1.60;;;;;;;20.00;37.86;100524.32;1892649;75;28090;-69
2021/12/15 07:51:13;;;;;;;2.97;1.80;;;;;;;20.00;37.83;100529.27;1870589;75;28172;-70
2021/12/15 07:54:02;;;;;;;3.12;1.80;;;;;;;19.99;37.87;100527.59;1881947;75;28047;-70
2021/12/15 07:56:51;;;;;;;2.20;1.80;;;;;;;19.95;37.86;100518.63;1882270;75;28160;-75
2021/12/15 07:59:39;;;;;;;1.92;1.75;;;;;;;19.99;37.87;100525.37;1885476;75;28090;-70
2021/12/15 08:02:28;;;;;;;1.80;1.70;;;;;;;20.01;37.98;100528.75;1865386;75;28183;-70
2021/12/15 08:05:17;;;;;;;3.22;1.90;;;;;;;19.96;38.10;100527.12;1869628;75;28194;-69
2021/12/15 08:08:07;;;;;;;1.77;1.67;;;;;;;19.96;38.19;100525.75;1816020;77;28309;-69
2021/12/15 08:10:57;;;;;;;3.60;1.80;;;;;;;19.96;38.25;100536.66;1890615;75;28074;-70
2021/12/15 08:13:45;;;;;;;1.98;1.72;;;;;;;19.97;38.43;100534.27;1899886;75;28168;-69
2021/12/15 08:16:34;;;;;;;1.65;1.55;;;;;;;19.95;38.57;100531.72;1891297;75;28192;-69
2021/12/15 08:19:23;;;;;;;1.82;1.72;;;;;;;19.95;38.61;100536.35;1876423;75;28656;-70
2021/12/15 08:22:11;;;;;;;1.80;1.67;;;;;;;19.95;38.69;100539.08;1881572;75;28125;-69
2021/12/15 08:25:00;;;;;;;1.90;1.70;;;;;;;19.97;38.74;100537.85;1881639;75;28193;-70
2021/12/15 08:27:50;;;;;;;1.85;1.62;;;;;;;19.91;38.82;100530.93;1890056;75;28229;-70
2021/12/15 08:30:41;;;;;;;2.30;1.60;;;;;;;19.91;38.95;100539.11;1895804;75;28205;-70
2021/12/15 08:33:30;;;;;;;2.05;1.80;;;;;;;19.92;38.98;100534.00;1869200;76;28167;-71
2021/12/15 08:36:20;;;;;;;2.20;1.70;;;;;;;19.93;39.02;100532.95;1885112;75;33026;-69
2021/12/15 08:39:09;;;;;;;2.20;1.80;;;;;;;19.91;39.03;100538.60;1887855;75;28274;-69
2021/12/15 08:41:59;;;;;;;2.72;1.70;;;;;;;19.93;39.07;100539.25;1828941;77;28137;-69
2021/12/15 08:44:47;;;;;;;1.60;1.50;;;;;;;19.96;39.10;100538.02;1869014;76;28252;-69
2021/12/15 08:47:36;;;;;;;1.80;1.70;;;;;;;19.92;39.13;100536.73;1868346;76;28138;-71
2021/12/15 08:50:29;;;;;;;1.70;1.60;;;;;;;19.89;39.13;100528.92;1885766;75;28061;-69
2021/12/15 08:53:18;;;;;;;1.82;1.72;;;;;;;19.92;39.14;100537.58;1879622;75;28198;-71
2021/12/15 08:56:25;;;;;;;2.35;1.75;;;;;;;19.91;39.22;100538.60;1877996;75;28211;-71
2021/12/15 08:59:14;;;;;;;1.60;1.50;;;;;;;19.90;39.26;100541.53;1870318;75;28414;-70
2021/12/15 09:02:03;;;;;;;2.12;1.80;;;;;;;19.90;39.27;100539.66;1881131;75;28113;-69
2021/12/15 09:04:51;;;;;;;1.80;1.70;;;;;;;19.90;39.29;100536.08;1895048;75;28186;-69
2021/12/15 09:07:44;;;;;;;1.70;1.60;;;;;;;19.91;39.26;100546.78;1891322;75;28115;-69
2021/12/15 09:10:33;;;;;;;1.55;1.50;;;;;;;19.90;39.25;100547.84;1873772;74;28670;-69
2021/12/15 09:13:22;;;;;;;1.85;1.70;;;;;;;19.89;39.29;100546.13;1863626;75;28529;-68
2021/12/15 09:16:12;;;;;;;1.70;1.60;;;;;;;19.88;39.32;100548.52;1890920;75;28187;-70
2021/12/15 09:19:01;;;;;;;1.98;1.72;;;;;;;19.91;39.33;100545.93;1880055;75;28044;-68
2021/12/15 09:21:52;;;;;;;1.70;1.60;;;;;;;19.90;39.33;100552.44;1871616;75;28216;-68
2021/12/15 09:24:41;;;;;;;2.00;1.80;;;;;;;19.90;39.31;100549.20;1892759;75;28118;-69
2021/12/15 09:27:29;;;;;;;1.80;1.70;;;;;;;19.90;39.35;100553.80;1882893;75;28114;-68
2021/12/15 09:30:21;;;;;;;2.10;1.53;;;;;;;19.92;39.28;100556.67;1883541;75;28089;-69
2021/12/15 09:33:11;;;;;;;1.95;1.77;;;;;;;19.94;39.25;100559.19;1868924;76;28203;-69
2021/12/15 09:36:02;;;;;;;1.95;1.65;;;;;;;19.91;39.26;100556.33;1880566;75;28044;-69
2021/12/15 09:38:56;;;;;;;2.15;1.90;;;;;;;19.90;39.30;100554.66;1861666;75;28125;-69
2021/12/15 09:41:46;;;;;;;1.87;1.62;;;;;;;19.92;39.36;100553.09;1890910;75;28117;-69
2021/12/15 09:44:34;;;;;;;1.80;1.70;;;;;;;19.91;39.33;100554.96;1854549;77;28130;-69
2021/12/15 10:02:37;;;;;;;2.10;1.85;;;;;;;19.85;39.29;100550.28;1852404;77;28091;-69
2021/12/15 10:05:39;;;;;;;1.77;1.55;;;;;;;19.85;39.34;100554.38;1880678;75;28080;-69
2021/12/15 10:11:52;;;;;;;1.80;1.70;;;;;;;19.84;39.34;100539.55;1884918;74;28134;-68
2021/12/15 10:18:01;;;;;;;1.80;1.70;;;;;;;19.80;39.31;100540.47;1907173;74;28090;-69
2021/12/15 10:20:40;;;;;;;1.90;1.80;;;;;;;19.80;39.32;100535.02;1878164;76;28227;-69
2021/12/15 10:23:40;;;;;;;1.90;1.80;;;;;;;19.81;39.26;100539.95;1894399;74;28047;-68
2021/12/15 10:26:27;;;;;;;2.60;1.90;;;;;;;19.85;39.20;100536.66;1878121;76;28256;-68
2021/12/15 10:29:18;;;;;;;2.05;1.85;;;;;;;19.82;39.19;100538.90;1899775;74;28164;-68
2021/12/15 10:32:07;;;;;;;1.90;1.70;;;;;;;19.83;39.20;100535.16;1900004;74;28118;-69
2021/12/15 10:35:11;;;;;;;1.98;1.80;;;;;;;19.84;39.19;100532.73;1878264;76;28137;-69
2021/12/15 10:38:29;;;;;;;1.70;1.60;;;;;;;19.85;39.11;100537.17;1894757;74;28086;-69
2021/12/15 10:41:27;;;;;;;1.90;1.80;;;;;;;19.83;39.13;100533.79;1895686;74;28159;-70
2021/12/15 10:44:21;;;;;;;1.80;1.70;;;;;;;19.79;39.19;100525.67;1893437;74;28247;-69
2021/12/15 10:47:11;;;;;;;2.00;1.90;;;;;;;19.78;39.19;100531.64;1888648;74;28036;-70
2021/12/15 10:50:00;;;;;;;2.00;1.90;;;;;;;19.79;39.17;100534.67;1885684;74;28160;-69
2021/12/15 10:52:54;;;;;;;1.85;1.75;;;;;;;19.81;39.10;100530.41;1891930;74;28230;-69
2021/12/15 10:56:02;;;;;;;1.98;1.80;;;;;;;19.83;39.06;100531.06;1878608;76;29110;-71
2021/12/15 10:58:54;;;;;;;1.90;1.80;;;;;;;19.80;39.09;100529.56;1892273;74;28074;-70
2021/12/15 11:01:54;;;;;;;1.85;1.75;;;;;;;19.82;39.06;100524.76;1889241;74;28116;-69
2021/12/15 11:05:00;;;;;;;2.20;2.00;;;;;;;19.80;39.07;100521.89;1888948;74;28189;-71
2021/12/15 11:07:54;;;;;;;1.70;1.60;;;;;;;19.80;39.06;100521.38;1910956;74;28137;-69
2021/12/15 11:10:43;;;;;;;2.20;2.00;;;;;;;19.77;39.08;100513.58;1891002;74;28129;-69
2021/12/15 11:13:33;;;;;;;1.90;1.80;;;;;;;19.75;39.03;100511.56;1892429;74;28079;-69
2021/12/15 11:16:32;;;;;;;2.02;1.92;;;;;;;19.78;39.01;100508.98;1889164;74;28043;-69
2021/12/15 11:19:40;;;;;;;1.80;1.70;;;;;;;19.79;39.00;100512.86;1888655;74;28168;-68
2021/12/15 11:22:37;;;;;;;1.95;1.80;;;;;;;19.79;38.97;100509.31;1888925;74;28172;-69
2021/12/15 11:25:37;;;;;;;2.30;2.10;;;;;;;19.78;38.97;100503.02;1904515;74;28182;-69
2021/12/15 11:28:34;;;;;;;2.55;1.87;;;;;;;19.78;38.91;100506.25;1902508;74;28153;-68
2021/12/15 11:31:31;;;;;;;2.20;2.10;;;;;;;19.75;39.00;100502.53;1893284;74;28048;-69
2021/12/15 11:34:20;;;;;;;2.05;1.95;;;;;;;19.77;38.97;100500.45;1896576;74;28145;-69
2021/12/15 11:37:09;;;;;;;2.20;2.00;;;;;;;19.75;38.99;100502.02;1889591;74;28144;-70
2021/12/15 11:40:04;;;;;;;2.45;2.05;;;;;;;19.78;38.94;100496.20;1903590;74;28194;-69
2021/12/15 11:42:55;;;;;;;2.30;2.10;;;;;;;19.78;38.91;100499.44;1878979;74;28215;-69
2021/12/15 11:45:43;;;;;;;2.25;2.08;;;;;;;19.77;38.89;100496.37;1889646;74;28215;-69
2021/12/15 11:48:34;;;;;;;1.98;1.87;;;;;;;19.77;38.91;100491.77;1905311;74;28105;-69
2021/12/15 11:51:31;;;;;;;2.05;1.95;;;;;;;19.75;38.89;100491.12;1900906;74;28127;-68
2021/12/15 11:54:29;;;;;;;2.23;2.03;;;;;;;19.76;38.90;100491.97;1896659;74;28069;-69
2021/12/15 11:57:26;;;;;;;2.20;2.03;;;;;;;19.74;38.92;100483.96;1890907;74;28060;-69
2021/12/15 12:00:18;;;;;;;2.22;2.02;;;;;;;19.71;38.94;100480.80;1878223;76;28120;-68
2021/12/15 12:03:06;;;;;;;2.10;2.00;;;;;;;19.72;38.92;100475.14;1901117;74;28360;-68
2021/12/15 12:05:56;;;;;;;2.35;2.25;;;;;;;19.75;38.86;100472.55;1899736;74;28035;-69
2021/12/15 12:08:51;;;;;;;2.10;2.00;;;;;;;19.77;38.84;100477.28;1894748;74;28137;-69
2021/12/15 12:11:42;;;;;;;2.10;2.00;;;;;;;19.78;38.80;100474.90;1911098;74;28035;-69
2021/12/15 12:14:42;;;;;;;1.90;1.80;;;;;;;19.77;38.80;100463.66;1889113;74;28079;-69
2021/12/15 12:17:35;;;;;;;2.50;2.30;;;;;;;19.74;38.78;100469.52;1887107;74;28247;-69
2021/12/15 12:20:29;;;;;;;2.33;2.20;;;;;;;19.74;38.80;100466.79;1897668;74;28133;-69
2021/12/15 12:23:20;;;;;;;2.40;2.30;;;;;;;19.73;38.78;100464.58;1893779;74;28186;-69
2021/12/15 12:26:10;;;;;;;2.80;2.20;;;;;;;19.75;38.73;100458.92;1879615;74;28234;-70
2021/12/15 12:29:01;;;;;;;2.57;2.37;;;;;;;19.75;38.74;100464.37;1900594;74;28095;-68
2021/12/15 12:31:49;;;;;;;2.77;2.35;;;;;;;19.74;38.72;100465.42;1898675;74;28090;-68
2021/12/15 12:34:39;;;;;;;2.27;2.17;;;;;;;19.75;38.70;100463.01;1893079;74;28216;-68
2021/12/15 12:37:27;;;;;;;2.40;2.20;;;;;;;19.74;38.70;100463.52;1889339;74;28167;-69
2021/12/15 12:40:24;;;;;;;2.70;2.50;;;;;;;19.75;38.66;100460.28;1907326;74;28077;-69
2021/12/15 12:43:21;;;;;;;2.50;2.20;;;;;;;19.76;38.71;100460.63;1899960;74;28492;-69
2021/12/15 12:46:32;;;;;;;2.20;2.10;;;;;;;19.74;38.69;100457.25;1878457;76;28205;-69
2021/12/15 13:01:50;;;;;;;2.33;2.20;;;;;;;19.69;38.79;100449.65;1878530;74;28117;-69
2021/12/15 13:04:41;;;;;;;2.45;2.25;;;;;;;19.68;38.75;100441.13;1905008;74;28255;-69
2021/12/15 13:07:49;;;;;;;2.60;2.40;;;;;;;19.68;38.71;100456.64;1878711;76;33244;-69
2021/12/15 13:10:55;;;;;;;2.65;2.45;;;;;;;19.70;38.67;100457.28;1878569;76;28187;-69
2021/12/15 13:14:11;;;;;;;2.65;2.45;;;;;;;19.71;38.65;100454.90;1865256;76;28195;-68
2021/12/15 13:17:08;;;;;;;2.37;2.17;;;;;;;19.68;38.71;100459.36;1868732;76;28121;-69
2021/12/15 13:19:55;;;;;;;2.55;2.35;;;;;;;19.64;38.76;100451.25;1869557;75;28067;-69
2021/12/15 13:23:02;;;;;;;2.53;2.33;;;;;;;19.66;38.72;100454.11;1867948;75;28065;-69
2021/12/15 13:28:51;;;;;;;2.87;2.43;;;;;;;19.68;38.72;100443.86;1890771;75;28023;-69
2021/12/15 13:31:43;;;;;;;2.75;2.47;;;;;;;19.64;38.71;100447.16;1887245;75;28053;-69
2021/12/15 13:34:37;;;;;;;2.50;2.40;;;;;;;19.67;38.70;100454.97;1888599;75;28171;-69
2021/12/15 13:37:57;;;;;;;2.47;2.30;;;;;;;19.66;38.71;100446.45;1899583;75;28028;-69
2021/12/15 13:41:01;;;;;;;2.70;2.50;;;;;;;19.67;38.67;100444.91;1867682;75;28148;-70
2021/12/15 13:43:59;;;;;;;2.77;2.58;;;;;;;19.63;38.71;100455.00;1860920;75;28285;-70
2021/12/15 13:46:58;;;;;;;2.60;2.40;;;;;;;19.61;38.76;100453.84;1878637;75;28208;-69
2021/12/15 13:50:02;;;;;;;2.40;2.30;;;;;;;19.61;38.76;100452.98;1890994;75;28619;-71
2021/12/15 13:52:59;;;;;;;2.50;2.30;;;;;;;19.62;38.72;100449.23;1882733;75;28133;-69
2021/12/15 13:55:48;;;;;;;2.30;2.20;;;;;;;19.62;38.71;100447.37;1872627;75;28036;-69
2021/12/15 13:58:36;;;;;;;2.55;2.35;;;;;;;19.62;38.72;100457.42;1879534;75;28044;-69
2021/12/15 14:01:25;;;;;;;2.47;2.30;;;;;;;19.64;38.67;100460.79;1885879;75;28071;-69
2021/12/15 14:04:13;;;;;;;2.70;2.50;;;;;;;19.68;38.64;100455.27;1888542;75;28024;-69
2021/12/15 14:07:22;;;;;;;2.72;2.52;;;;;;;19.69;38.61;100458.34;1870781;75;28213;-69
2021/12/15 14:10:17;;;;;;;2.40;2.30;;;;;;;19.65;38.62;100452.95;1869443;75;28056;-69
2021/12/15 14:13:07;;;;;;;2.60;2.40;;;;;;;19.62;38.68;100456.91;1879325;75;28141;-69
2021/12/15 14:15:56;;;;;;;2.60;2.40;;;;;;;19.64;38.65;100453.98;1864986;75;28209;-69
2021/12/15 14:18:44;;;;;;;2.80;2.60;;;;;;;19.64;38.65;100453.98;1887841;75;28044;-70
2021/12/15 14:21:34;;;;;;;2.65;2.45;;;;;;;19.63;38.69;100455.00;1870200;75;32960;-69
2021/12/15 14:24:23;;;;;;;2.33;2.23;;;;;;;19.62;38.67;100454.69;1879830;75;28136;-71
2021/12/15 14:27:11;;;;;;;2.47;2.33;;;;;;;19.66;38.62;100454.63;1899715;75;28067;-71
2021/12/15 14:29:59;;;;;;;2.43;2.33;;;;;;;19.66;38.61;100458.71;1874597;75;28122;-69
2021/12/15 14:32:48;;;;;;;2.62;2.42;;;;;;;19.65;38.60;100465.22;1869002;75;28071;-69
2021/12/15 14:35:36;;;;;;;2.50;2.30;;;;;;;19.66;38.60;100468.25;1867870;75;28029;-70
2021/12/15 14:38:37;;;;;;;2.37;2.17;;;;;;;19.60;38.65;100454.89;1879575;75;28147;-68
2021/12/15 14:41:31;;;;;;;2.60;2.40;;;;;;;19.63;38.63;100465.91;1870724;75;28603;-68
2021/12/15 14:44:26;;;;;;;2.62;2.42;;;;;;;19.64;38.62;100469.82;1884108;75;28047;-69
2021/12/15 14:47:18;;;;;;;2.60;2.40;;;;;;;19.63;38.64;100471.35;1889465;75;28041;-69
2021/12/15 14:50:13;;;;;;;3.00;2.70;;;;;;;19.62;38.63;100472.41;1895718;75;28156;-69
2021/12/15 14:53:03;;;;;;;2.40;2.20;;;;;;;19.60;38.63;100473.97;1878777;75;28044;-69
2021/12/15 14:55:52;;;;;;;2.77;2.50;;;;;;;19.59;38.68;100479.08;1887086;75;28095;-69
2021/12/15 14:58:40;;;;;;;2.67;2.47;;;;;;;19.59;38.66;100482.31;1869516;75;28016;-69
2021/12/15 15:01:30;;;;;;;2.70;2.50;;;;;;;19.59;38.70;100480.95;1901429;75;28073;-69
2021/12/15 15:04:21;;;;;;;2.50;2.40;;;;;;;19.59;38.66;100480.95;1867489;75;28220;-68
2021/12/15 15:07:12;;;;;;;2.50;2.30;;;;;;;19.59;38.63;100484.53;1872334;75;28181;-69
2021/12/15 15:10:03;;;;;;;2.33;2.20;;;;;;;19.59;38.65;100483.17;1869227;76;33051;-70
2021/12/15 15:12:54;;;;;;;2.60;2.40;;;;;;;19.59;38.64;100486.41;1878847;75;28172;-69
2021/12/15 15:15:45;;;;;;;2.50;2.40;;;;;;;19.56;38.71;100487.63;1900730;74;28070;-70
2021/12/15 15:18:34;;;;;;;2.67;2.40;;;;;;;19.59;38.69;100491.34;1903335;74;28117;-70
2021/12/15 15:21:23;;;;;;;2.65;2.50;;;;;;;19.59;38.67;100495.95;1897363;74;28570;-70
2021/12/15 15:24:29;;;;;;;2.40;2.20;;;;;;;19.57;38.67;100493.94;1910680;74;28473;-70
2021/12/15 15:27:19;;;;;;;2.47;2.30;;;;;;;19.57;38.70;100491.20;1888056;74;28192;-69
2021/12/15 15:30:10;;;;;;;2.42;2.33;;;;;;;19.56;38.73;100492.23;1897582;74;28153;-69
2021/12/15 15:33:02;;;;;;;2.60;2.40;;;;;;;19.56;38.66;100497.17;1880544;75;28109;-69
2021/12/15 15:35:56;;;;;;;2.50;2.40;;;;;;;19.55;38.67;100492.77;1915844;74;28053;-69
2021/12/15 15:38:47;;;;;;;2.40;2.30;;;;;;;19.56;38.70;100499.89;1890757;74;28223;-69
2021/12/15 15:41:38;;;;;;;2.60;2.40;;;;;;;19.54;38.72;100500.61;1906092;74;28042;-69
2021/12/15 15:44:30;;;;;;;2.52;2.33;;;;;;;19.54;38.73;100506.05;1884735;75;28205;-69
2021/12/15 15:47:23;;;;;;;2.30;2.20;;;;;;;19.55;38.72;100512.36;1884698;75;28230;-68
2021/12/15 15:50:11;;;;;;;2.80;2.40;;;;;;;19.53;38.71;100510.34;1912787;74;28068;-68
2021/12/15 15:53:03;;;;;;;2.42;2.33;;;;;;;19.53;38.73;100511.20;1895525;74;28156;-71
2021/12/15 15:55:55;;;;;;;2.50;2.40;;;;;;;19.53;38.70;100514.44;1884821;75;28144;-69
2021/12/15 15:58:46;;;;;;;2.50;2.30;;;;;;;19.52;38.76;100513.58;1884632;75;28702;-69
2021/12/15 16:01:38;;;;;;;2.47;2.30;;;;;;;19.50;38.78;100517.02;1884731;75;28242;-68
2021/12/15 16:04:28;;;;;;;2.90;2.40;;;;;;;19.49;38.76;100522.64;1884601;75;28268;-69
2021/12/15 16:07:22;;;;;;;2.40;2.30;;;;;;;19.49;38.83;100529.45;1885011;75;28161;-68
2021/12/15 16:10:11;;;;;;;2.55;2.40;;;;;;;19.49;38.82;100534.89;1884859;75;28116;-71
2021/12/15 16:13:03;;;;;;;2.58;2.47;;;;;;;19.49;38.81;100529.45;1904329;74;28030;-68
2021/12/15 16:16:04;;;;;;;2.65;2.50;;;;;;;19.52;38.77;100534.53;1895416;74;28161;-69
2021/12/15 16:19:00;;;;;;;2.40;2.30;;;;;;;19.53;38.77;100541.17;1896508;74;28194;-69
2021/12/15 16:24:41;;;;;;;2.30;2.20;;;;;;;19.52;38.79;100535.89;1884889;75;28155;-70
2021/12/15 16:27:41;;;;;;;2.60;2.40;;;;;;;19.49;38.79;100541.20;1884810;75;28150;-70
2021/12/15 16:30:33;;;;;;;2.80;2.60;;;;;;;19.49;38.82;100545.28;1906979;74;28034;-69
2021/12/15 16:33:28;;;;;;;2.40;2.20;;;;;;;19.48;38.79;100542.77;1884839;75;28148;-69
2021/12/15 16:36:23;;;;;;;2.60;2.40;;;;;;;19.50;38.79;100547.50;1884834;75;28259;-69
2021/12/15 16:39:13;;;;;;;2.35;2.25;;;;;;;19.45;38.88;100554.03;1896111;74;28129;-69
2021/12/15 16:42:02;;;;;;;2.35;2.25;;;;;;;19.45;38.83;100561.70;1895547;74;28112;-69
2021/12/15 16:44:56;;;;;;;2.47;2.30;;;;;;;19.47;38.83;100569.67;1917175;74;28086;-69
2021/12/15 16:47:45;;;;;;;2.50;2.40;;;;;;;19.51;38.81;100575.09;1902562;74;28043;-71
2021/12/15 16:50:33;;;;;;;2.40;2.30;;;;;;;19.47;38.81;100571.88;1896591;74;28027;-68
2021/12/15 16:53:23;;;;;;;2.37;2.25;;;;;;;19.50;38.82;100581.56;1895594;74;28052;-71
2021/12/15 16:56:15;;;;;;;2.52;2.40;;;;;;;19.50;38.79;100587.02;1894997;74;28633;-69
2021/12/15 16:59:15;;;;;;;2.33;2.22;;;;;;;19.49;38.79;100583.95;1885302;74;28076;-70
2021/12/15 17:02:06;;;;;;;2.70;2.50;;;;;;;19.45;38.76;100585.36;1856264;76;28138;-69
2021/12/15 17:04:57;;;;;;;2.70;2.50;;;;;;;19.45;38.76;100585.36;1827093;77;28381;-70
2021/12/15 17:07:49;;;;;;;2.63;2.47;;;;;;;19.45;38.84;100584.00;1827033;77;28406;-69
2021/12/15 17:10:41;;;;;;;2.30;2.20;;;;;;;19.43;38.89;100587.44;1839293;77;28320;-68
2021/12/15 17:13:35;;;;;;;2.37;2.23;;;;;;;19.41;38.91;100584.91;1831281;78;28259;-69
2021/12/15 17:16:33;;;;;;;2.55;2.35;;;;;;;19.42;38.87;100589.84;1843862;77;28303;-69
2021/12/15 17:19:20;;;;;;;2.37;2.27;;;;;;;19.45;38.92;100590.81;1823742;77;28334;-69
2021/12/15 17:22:14;;;;;;;2.40;2.30;;;;;;;19.42;38.86;100592.57;1890940;75;28043;-69
2021/12/15 17:25:14;;;;;;;2.40;2.30;;;;;;;19.45;38.86;100594.91;1886937;75;28031;-69
2021/12/15 17:28:15;;;;;;;2.70;2.50;;;;;;;19.44;38.87;100602.77;1882488;75;28068;-69
2021/12/15 17:31:09;;;;;;;2.67;2.58;;;;;;;19.44;38.83;100597.31;1891493;75;28117;-69
2021/12/15 17:34:06;;;;;;;2.70;2.50;;;;;;;19.41;38.87;100601.25;1897209;75;28512;-69
2021/12/15 17:36:58;;;;;;;2.60;2.42;;;;;;;19.41;38.89;100602.62;1879780;75;28126;-70
2021/12/15 17:39:49;;;;;;;2.40;2.30;;;;;;;19.41;38.91;100605.85;1901519;75;28063;-69
2021/12/15 17:42:40;;;;;;;2.50;2.30;;;;;;;19.44;38.88;100611.76;1869374;76;28176;-69
2021/12/15 17:45:28;;;;;;;2.70;2.50;;;;;;;19.43;38.88;100611.45;1876660;75;28046;-70
2021/12/15 17:48:19;;;;;;;2.60;2.40;;;;;;;19.42;38.91;100613.01;1879840;75;28152;-69
2021/12/15 17:51:08;;;;;;;2.52;2.33;;;;;;;19.42;38.85;100615.73;1883545;75;28219;-70
2021/12/15 17:53:58;;;;;;;2.70;2.50;;;;;;;19.42;38.87;100622.55;1881584;75;28040;-69
2021/12/15 17:56:47;;;;;;;2.62;2.40;;;;;;;19.41;38.87;100616.75;1879644;75;28081;-70
2021/12/15 17:59:39;;;;;;;2.55;2.35;;;;;;;19.42;38.88;100621.19;1880326;75;28121;-70
2021/12/15 18:02:33;;;;;;;2.62;2.45;;;;;;;19.42;38.91;100619.82;1884231;75;28117;-71
2021/12/15 18:05:22;;;;;;;2.62;2.42;;;;;;;19.43;38.87;100621.49;1882049;75;28160;-71
2021/12/15 18:08:11;;;;;;;2.60;2.40;;;;;;;19.40;38.88;100617.27;1880129;75;28101;-70
2021/12/15 18:11:08;;;;;;;2.63;2.43;;;;;;;19.40;38.92;100620.49;1901614;75;28156;-69
2021/12/15 18:13:56;;;;;;;2.58;2.37;;;;;;;19.42;38.90;100623.36;1882848;75;28657;-70
2021/12/15 18:16:45;;;;;;;2.70;2.50;;;;;;;19.43;38.88;100629.66;1883069;75;28054;-71
2021/12/15 18:19:34;;;;;;;2.67;2.47;;;;;;;19.41;38.89;100627.65;1893057;75;28182;-71
2021/12/15 18:22:24;;;;;;;2.80;2.60;;;;;;;19.40;38.96;100630.88;1891091;75;28076;-71
2021/12/15 18:25:14;;;;;;;2.70;2.50;;;;;;;19.39;38.92;100632.45;1868586;75;28179;-70
2021/12/15 18:28:03;;;;;;;2.58;2.37;;;;;;;19.42;38.91;100636.17;1882980;75;28113;-70
2021/12/15 18:30:55;;;;;;;2.30;2.20;;;;;;;19.49;38.91;100641.17;1879787;75;28117;-70
2021/12/15 18:33:44;;;;;;;2.65;2.45;;;;;;;19.62;38.84;100637.30;1880194;75;28153;-70
2021/12/15 18:36:36;;;;;;;2.95;2.70;;;;;;;19.68;38.67;100643.34;1882933;75;28153;-70
2021/12/15 18:39:27;;;;;;;2.90;2.70;;;;;;;19.82;38.54;100639.78;1882818;75;28051;-70
2021/12/15 18:42:20;;;;;;;2.77;2.55;;;;;;;19.94;38.31;100649.18;1880435;75;31995;-69
2021/12/15 18:45:09;;;;;;;2.50;2.40;;;;;;;20.05;38.23;100641.05;1876782;75;28157;-73
2021/12/15 18:47:57;;;;;;;6.00;2.63;;;;;;;20.16;38.09;100650.10;1869388;76;28610;-70
2021/12/15 18:50:56;;;;;;;2.83;2.58;;;;;;;20.20;38.07;100652.25;1883006;75;28048;-70